createdAt,value
2022-09-07T00:01:00.997Z,51.35
2022-09-07T00:03:29.157Z,49.98
2022-09-07T00:05:57.361Z,48.30
2022-09-07T00:08:27.160Z,50.38
2022-09-07T00:10:57.527Z,50.12
2022-09-07T00:13:27.488Z,48.52
2022-09-07T00:15:56.911Z,47.59
2022-09-07T00:18:25.038Z,48.13
2022-09-07T00:20:59.343Z,46.99
2022-09-07T00:23:29.312Z,48.57
2022-09-07T00:26:01.234Z,46.54
2022-09-07T00:28:29.746Z,45.69
2022-09-07T00:30:59.416Z,45.26
2022-09-07T00:33:27.796Z,45.42
2022-09-07T00:35:55.866Z,45.88
2022-09-07T00:38:23.766Z,46.69
2022-09-07T00:40:51.786Z,49.16
2022-09-07T00:43:31.144Z,47.85
2022-09-07T00:46:00.832Z,48.68
2022-09-07T00:48:34.927Z,48.80
2022-09-07T00:51:09.401Z,48.07
2022-09-07T00:53:41.981Z,47.55
2022-09-07T00:56:12.067Z,48.46
2022-09-07T00:58:44.961Z,46.67
2022-09-07T01:01:16.784Z,48.08
2022-09-07T01:03:48.145Z,48.95
2022-09-07T01:06:18.876Z,50.90
2022-09-07T01:08:49.730Z,49.27
2022-09-07T01:11:19.387Z,48.11
2022-09-07T01:13:49.129Z,46.65
2022-09-07T01:16:33.003Z,45.57
2022-09-07T01:19:17.658Z,49.74
2022-09-07T01:22:00.375Z,47.69
2022-09-07T01:24:43.993Z,47.71
2022-09-07T01:27:52.856Z,48.27
2022-09-07T01:30:23.049Z,48.24
2022-09-07T01:33:11.528Z,47.98
2022-09-07T01:35:46.299Z,46.78
2022-09-07T01:38:22.560Z,46.59
2022-09-07T01:40:54.667Z,47.40
2022-09-07T01:43:30.790Z,45.96
2022-09-07T01:46:02.509Z,47.86
2022-09-07T01:48:34.551Z,46.52
2022-09-07T01:51:04.677Z,46.04
2022-09-07T01:53:36.993Z,45.22
2022-09-07T01:56:10.056Z,45.65
2022-09-07T01:58:44.292Z,45.85
2022-09-07T02:01:15.262Z,48.16
2022-09-07T02:03:48.285Z,47.12
2022-09-07T02:06:21.514Z,48.04
2022-09-07T02:08:56.684Z,47.67
2022-09-07T02:11:30.205Z,46.85
2022-09-07T02:14:01.845Z,48.35
2022-09-07T02:16:31.324Z,48.92
2022-09-07T02:19:05.366Z,49.34
2022-09-07T02:21:38.091Z,49.93
2022-09-07T02:24:10.858Z,51.58
2022-09-07T02:26:42.954Z,53.67
2022-09-07T02:29:12.223Z,52.56
2022-09-07T02:31:40.109Z,54.12
2022-09-07T02:34:08.531Z,54.79
2022-09-07T02:36:41.320Z,54.34
2022-09-07T02:39:09.251Z,55.46
2022-09-07T02:41:39.392Z,55.87
2022-09-07T02:44:12.063Z,57.73
2022-09-07T02:46:59.506Z,55.37
2022-09-07T02:49:40.332Z,53.11
2022-09-07T02:52:19.241Z,55.35
2022-09-07T02:54:59.050Z,53.26
2022-09-07T02:57:37.499Z,51.62
2022-09-07T03:00:11.113Z,51.98
2022-09-07T03:02:47.684Z,50.62
2022-09-07T03:05:20.933Z,49.50
2022-09-07T03:07:55.528Z,48.98
2022-09-07T03:10:24.350Z,48.89
2022-09-07T03:12:52.748Z,49.63
2022-09-07T03:15:23.574Z,50.20
2022-09-07T03:17:53.134Z,49.81
2022-09-07T03:20:22.296Z,49.05
2022-09-07T03:22:52.121Z,49.50
2022-09-07T03:25:21.962Z,49.19
2022-09-07T03:27:49.758Z,54.01
2022-09-07T03:30:17.942Z,52.75
2022-09-07T03:32:45.994Z,51.34
2022-09-07T03:35:15.348Z,52.20
2022-09-07T03:37:43.194Z,52.71
2022-09-07T03:40:13.361Z,49.40
2022-09-07T03:42:41.977Z,50.85
2022-09-07T03:45:11.267Z,51.74
2022-09-07T03:47:41.124Z,49.83
2022-09-07T03:50:09.770Z,48.70
2022-09-07T03:52:39.487Z,48.26
2022-09-07T03:55:07.739Z,47.01
2022-09-07T03:57:36.121Z,48.81
2022-09-07T04:00:05.484Z,49.47
2022-09-07T04:02:40.364Z,48.00
2022-09-07T04:05:11.561Z,51.39
2022-09-07T04:07:40.935Z,52.19
2022-09-07T04:10:09.908Z,49.96
2022-09-07T04:12:37.789Z,52.62
2022-09-07T04:15:06.484Z,51.92
2022-09-07T04:17:34.282Z,53.91
2022-09-07T04:20:02.705Z,54.67
2022-09-07T04:22:30.786Z,55.29
2022-09-07T04:25:00.016Z,57.58
2022-09-07T04:27:27.882Z,55.46
2022-09-07T04:29:55.676Z,53.75
2022-09-07T04:32:23.551Z,53.66
2022-09-07T04:34:51.936Z,52.94
2022-09-07T04:37:19.753Z,51.90
2022-09-07T04:39:47.663Z,54.58
2022-09-07T04:42:16.989Z,56.10
2022-09-07T04:44:45.243Z,56.75
2022-09-07T04:47:13.035Z,59.04
2022-09-07T04:49:41.163Z,56.26
2022-09-07T04:52:09.018Z,57.92
2022-09-07T04:54:36.811Z,56.08
2022-09-07T04:57:04.771Z,53.17
2022-09-07T04:59:34.028Z,51.99
2022-09-07T05:02:04.458Z,50.66
2022-09-07T05:04:32.304Z,49.73
2022-09-07T05:07:00.087Z,49.01
2022-09-07T05:09:28.021Z,48.38
2022-09-07T05:11:55.943Z,51.61
2022-09-07T05:14:23.934Z,50.52
2022-09-07T05:16:54.364Z,48.81
2022-09-07T05:19:22.233Z,47.81
2022-09-07T05:21:50.135Z,49.33
2022-09-07T05:24:17.975Z,53.55
2022-09-07T05:26:45.817Z,57.25
2022-09-07T05:32:03.188Z,60.87
2022-09-07T05:34:31.500Z,57.14
2022-09-07T05:37:02.919Z,54.37
2022-09-07T05:39:31.054Z,53.09
2022-09-07T05:41:59.001Z,51.38
2022-09-07T05:47:11.457Z,48.76
2022-09-07T05:49:39.295Z,49.04
2022-09-07T05:52:08.160Z,50.44
2022-09-07T05:54:36.189Z,50.88
2022-09-07T05:57:07.396Z,51.49
2022-09-07T05:59:35.441Z,51.81
2022-09-07T06:02:03.426Z,50.52
2022-09-07T06:04:33.664Z,49.12
2022-09-07T06:12:37.988Z,52.09
2022-09-07T06:15:06.603Z,51.91
2022-09-07T06:17:35.566Z,51.77
2022-09-07T06:20:05.629Z,50.77
2022-09-07T06:22:36.116Z,50.33
2022-09-07T06:25:04.612Z,50.68
2022-09-07T06:27:32.411Z,53.09
2022-09-07T06:30:00.246Z,53.26
2022-09-07T06:32:44.401Z,53.23
2022-09-07T06:35:15.605Z,53.40
2022-09-07T06:37:44.068Z,51.49
2022-09-07T06:40:12.893Z,51.01
2022-09-07T06:42:40.876Z,50.37
2022-09-07T06:45:11.420Z,49.79
2022-09-07T06:47:39.884Z,48.54
2022-09-07T06:50:08.821Z,47.86
2022-09-07T06:55:27.533Z,47.30
2022-09-07T06:57:55.459Z,46.03
2022-09-07T07:00:25.006Z,45.25
2022-09-07T07:02:52.995Z,45.47
2022-09-07T07:05:20.992Z,46.48
2022-09-07T07:07:50.485Z,45.99
2022-09-07T07:10:23.594Z,45.81
2022-09-07T07:12:53.118Z,44.66
2022-09-07T07:15:21.116Z,44.90
2022-09-07T07:17:56.089Z,46.29
2022-09-07T07:20:26.905Z,49.68
2022-09-07T07:22:56.155Z,50.39
2022-09-07T07:25:24.185Z,47.55
2022-09-07T07:27:52.115Z,45.45
2022-09-07T07:30:21.014Z,49.06
2022-09-07T07:32:49.376Z,45.35
2022-09-07T07:35:17.346Z,49.42
2022-09-07T07:37:45.219Z,51.16
2022-09-07T07:40:15.605Z,51.04
2022-09-07T07:42:44.712Z,53.33
2022-09-07T07:48:01.136Z,52.40
2022-09-07T07:50:31.072Z,51.57
2022-09-07T07:55:49.146Z,49.70
2022-09-07T07:58:17.144Z,48.77
2022-09-07T08:00:55.476Z,49.50
2022-09-07T08:03:24.916Z,48.46
2022-09-07T08:05:53.096Z,49.19
2022-09-07T08:08:24.099Z,47.52
2022-09-07T08:10:53.492Z,44.90
2022-09-07T08:13:21.754Z,46.73
2022-09-07T08:15:50.215Z,47.75
2022-09-07T08:18:18.624Z,45.18
2022-09-07T08:20:46.400Z,42.22
2022-09-07T08:23:15.134Z,46.65
2022-09-07T08:25:50.699Z,49.03
2022-09-07T08:28:20.158Z,49.67
2022-09-07T08:30:48.004Z,47.71
2022-09-07T08:33:17.645Z,48.16
2022-09-07T08:35:56.225Z,51.39
2022-09-07T08:38:24.064Z,50.98
2022-09-07T08:40:54.977Z,51.06
2022-09-07T08:43:50.249Z,47.82
2022-09-07T08:46:29.797Z,48.03
2022-09-07T08:49:01.379Z,47.04
2022-09-07T08:51:38.153Z,49.18
2022-09-07T08:54:11.700Z,45.03
2022-09-07T08:57:20.453Z,43.49
2022-09-07T08:59:40.192Z,45.58
2022-09-07T09:02:32.602Z,46.95
2022-09-07T09:05:18.264Z,45.51
2022-09-07T09:07:57.469Z,41.73
2022-09-07T09:10:35.904Z,42.81
2022-09-07T09:13:14.250Z,45.55
2022-09-07T09:16:02.526Z,47.53
2022-09-07T09:18:58.280Z,42.87
2022-09-07T09:21:27.045Z,42.83
2022-09-07T09:24:01.260Z,38.97
2022-09-07T09:26:31.634Z,39.10
2022-09-07T09:29:13.975Z,41.93
2022-09-07T09:31:43.196Z,43.95
2022-09-07T09:34:14.104Z,40.95
2022-09-07T09:36:46.101Z,38.34
2022-09-07T09:39:33.024Z,38.66
2022-09-07T09:42:15.217Z,40.25
2022-09-07T09:44:44.231Z,39.23
2022-09-07T09:47:31.372Z,39.36
2022-09-07T09:50:02.029Z,42.18
2022-09-07T09:52:47.735Z,39.23
2022-09-07T09:55:35.004Z,38.82
2022-09-07T10:03:59.116Z,37.52
2022-09-07T10:06:30.589Z,34.64
2022-09-07T10:09:00.678Z,37.50
2022-09-07T10:12:07.150Z,37.05
2022-09-07T10:14:43.156Z,37.79
2022-09-07T10:17:23.422Z,38.48
2022-09-07T10:19:52.736Z,33.69
2022-09-07T10:22:32.153Z,36.28
2022-09-07T10:25:01.191Z,38.59
2022-09-07T10:27:34.657Z,38.95
2022-09-07T10:30:06.701Z,39.76
2022-09-07T10:32:51.999Z,35.06
2022-09-07T10:35:30.932Z,32.96
2022-09-07T10:38:11.413Z,32.13
2022-09-07T10:40:43.959Z,39.64
2022-09-07T10:43:30.772Z,37.18
2022-09-07T10:49:20.424Z,36.96
2022-09-07T10:52:01.881Z,35.56
2022-09-07T10:54:38.662Z,35.72
2022-09-07T10:57:25.446Z,35.33
2022-09-07T11:00:11.105Z,39.07
2022-09-07T11:05:55.826Z,38.72
2022-09-07T11:09:15.155Z,36.42
2022-09-07T11:14:19.315Z,33.11
2022-09-07T11:16:54.144Z,32.65
2022-09-07T11:19:41.795Z,32.05
2022-09-07T11:22:20.427Z,32.03
2022-09-07T11:27:48.182Z,31.35
2022-09-07T11:30:24.578Z,31.13
2022-09-07T11:33:06.089Z,28.02
2022-09-07T11:35:45.759Z,24.68
2022-09-07T11:38:26.481Z,27.27
2022-09-07T11:41:05.996Z,30.93
2022-09-07T11:43:42.346Z,31.46
2022-09-07T11:46:15.664Z,31.11
2022-09-07T11:48:46.791Z,31.58
2022-09-07T11:51:21.079Z,29.00
2022-09-07T11:53:57.102Z,26.04
2022-09-07T11:56:36.348Z,24.72
2022-09-07T11:59:27.936Z,22.55
2022-09-07T12:02:17.393Z,21.62
2022-09-07T12:05:03.867Z,22.46
2022-09-07T12:07:44.616Z,23.00
2022-09-07T12:10:33.926Z,28.16
2022-09-07T12:13:40.240Z,26.25
2022-09-07T12:16:16.538Z,24.03
2022-09-07T12:19:12.959Z,23.20
2022-09-07T12:21:43.280Z,23.79
2022-09-07T12:24:40.864Z,20.43
2022-09-07T12:27:26.375Z,21.07
2022-09-07T12:30:29.048Z,22.16
2022-09-07T12:33:19.498Z,23.69
2022-09-07T12:35:47.286Z,22.58
2022-09-07T12:38:57.715Z,22.62
2022-09-07T12:41:41.047Z,26.45
2022-09-07T12:44:16.866Z,29.12
2022-09-07T12:47:25.249Z,26.66
2022-09-07T12:50:14.024Z,25.72
2022-09-07T12:53:13.467Z,25.37
2022-09-07T12:59:17.501Z,24.21
2022-09-07T13:01:58.722Z,27.20
2022-09-07T13:04:43.921Z,26.54
2022-09-07T13:08:04.308Z,28.96
2022-09-07T13:10:38.143Z,29.99
2022-09-07T13:13:07.890Z,29.48
2022-09-07T13:15:41.481Z,28.51
2022-09-07T13:18:17.081Z,26.87
2022-09-07T13:20:45.083Z,27.38
2022-09-07T13:23:32.123Z,24.89
2022-09-07T13:26:01.961Z,24.16
2022-09-07T13:29:01.279Z,23.56
2022-09-07T13:31:54.653Z,23.10
2022-09-07T13:34:49.307Z,23.36
2022-09-07T13:37:21.465Z,23.44
2022-09-07T13:39:54.023Z,23.68
2022-09-07T13:42:25.967Z,25.92
2022-09-07T13:44:59.187Z,25.91
2022-09-07T13:47:36.030Z,26.75
2022-09-07T13:50:17.079Z,26.03
2022-09-07T13:53:07.871Z,24.28
2022-09-07T13:55:41.850Z,22.89
2022-09-07T13:58:22.172Z,23.53
2022-09-07T14:00:54.779Z,23.98
2022-09-07T14:03:25.037Z,23.35
2022-09-07T14:06:26.145Z,22.85
2022-09-07T14:08:56.131Z,22.39
2022-09-07T14:11:27.429Z,24.29
2022-09-07T14:14:13.635Z,23.42
2022-09-07T14:16:43.832Z,24.34
2022-09-07T14:19:14.315Z,22.39
2022-09-07T14:21:42.081Z,25.40
2022-09-07T14:24:21.574Z,23.87
2022-09-07T14:26:50.767Z,23.59
2022-09-07T14:29:30.064Z,23.95
2022-09-07T14:32:01.954Z,24.36
2022-09-07T14:34:36.906Z,24.15
2022-09-07T14:37:08.186Z,24.34
2022-09-07T14:39:39.690Z,22.99
2022-09-07T14:42:12.148Z,21.92
2022-09-07T14:44:43.064Z,23.99
2022-09-07T14:47:24.710Z,24.29
2022-09-07T14:49:53.165Z,24.71
2022-09-07T14:52:26.393Z,24.76
2022-09-07T14:54:54.621Z,25.03
2022-09-07T14:57:39.390Z,24.96
2022-09-07T15:00:21.558Z,25.86
2022-09-07T15:02:49.328Z,25.47
2022-09-07T15:05:22.482Z,25.62
2022-09-07T15:07:52.829Z,26.59
2022-09-07T15:10:31.310Z,25.88
2022-09-07T15:13:01.882Z,26.26
2022-09-07T15:15:32.406Z,24.65
2022-09-07T15:18:07.760Z,25.85
2022-09-07T15:20:39.629Z,25.02
2022-09-07T15:23:11.410Z,24.49
2022-09-07T15:25:40.645Z,24.61
2022-09-07T15:33:59.943Z,25.50
2022-09-07T15:36:28.786Z,26.60
2022-09-07T15:39:00.062Z,27.50
2022-09-07T15:41:29.172Z,26.81
2022-09-07T15:43:58.262Z,26.15
2022-09-07T15:46:29.151Z,28.28
2022-09-07T15:48:58.261Z,27.31
2022-09-07T15:54:17.536Z,27.95
2022-09-07T15:59:37.834Z,28.33
2022-09-07T16:03:04.759Z,28.69
2022-09-07T16:04:55.387Z,28.02
2022-09-07T16:08:24.935Z,28.31
2022-09-07T16:10:11.571Z,28.21
2022-09-07T16:15:28.535Z,26.93
2022-09-07T16:17:56.257Z,28.79
2022-09-07T16:20:24.117Z,28.17
2022-09-07T16:25:42.220Z,29.91
2022-09-07T16:28:11.678Z,29.04
2022-09-07T16:30:41.896Z,28.16
2022-09-07T16:33:09.631Z,28.70
2022-09-07T16:35:37.379Z,29.25
2022-09-07T16:40:52.793Z,29.75
2022-09-07T16:43:20.986Z,29.74
2022-09-07T16:46:05.281Z,27.78
2022-09-07T16:48:35.052Z,27.65
2022-09-07T16:51:03.017Z,28.70
2022-09-07T16:53:32.463Z,32.12
2022-09-07T16:56:04.895Z,32.96
2022-09-07T16:58:47.639Z,32.96
2022-09-07T17:01:19.242Z,32.88
2022-09-07T17:03:49.341Z,32.46
2022-09-07T17:06:19.052Z,32.61
2022-09-07T17:08:47.049Z,31.57
2022-09-07T17:11:17.017Z,31.72
2022-09-07T17:13:45.575Z,30.96
2022-09-07T17:16:15.357Z,30.96
2022-09-07T17:21:37.154Z,31.08
2022-09-07T17:24:07.565Z,31.00
2022-09-07T17:26:36.332Z,30.49
2022-09-07T17:29:04.234Z,31.38
2022-09-07T17:34:25.080Z,31.32
2022-09-07T17:36:55.593Z,32.22
2022-09-07T17:39:23.337Z,33.19
2022-09-07T17:41:53.262Z,33.37
2022-09-07T17:44:21.195Z,33.05
2022-09-07T17:46:48.848Z,33.53
2022-09-07T17:49:17.681Z,34.25
2022-09-07T17:51:47.268Z,34.71
2022-09-07T17:54:17.525Z,34.35
2022-09-07T17:56:45.852Z,34.14
2022-09-07T18:02:01.937Z,35.59
2022-09-07T18:04:29.875Z,35.90
2022-09-07T18:06:58.968Z,38.92
2022-09-07T18:09:26.648Z,42.52
2022-09-07T18:11:54.348Z,42.97
2022-09-07T18:14:22.227Z,43.91
2022-09-07T18:16:50.734Z,44.00
2022-09-07T18:19:19.034Z,45.33
2022-09-07T18:21:47.815Z,46.92
2022-09-07T18:24:19.534Z,50.37
2022-09-07T18:26:50.991Z,49.62
2022-09-07T18:29:33.995Z,49.86
2022-09-07T18:32:04.624Z,51.94
2022-09-07T18:34:33.731Z,51.71
2022-09-07T18:37:02.351Z,52.30
2022-09-07T18:39:32.771Z,50.56
2022-09-07T18:42:00.481Z,50.87
2022-09-07T18:47:23.252Z,51.94
2022-09-07T18:49:55.446Z,52.33
2022-09-07T18:55:15.622Z,50.69
2022-09-07T18:57:43.443Z,51.19
2022-09-07T19:00:13.113Z,50.17
2022-09-07T19:02:40.932Z,49.20
2022-09-07T19:08:03.770Z,48.09
2022-09-07T19:10:35.961Z,48.20
2022-09-07T19:13:04.333Z,47.36
2022-09-07T19:15:37.112Z,48.19
2022-09-07T19:18:06.262Z,50.42
2022-09-07T19:20:34.914Z,49.70
2022-09-07T19:23:07.192Z,49.06
2022-09-07T19:25:41.064Z,47.71
2022-09-07T19:28:09.169Z,47.74
2022-09-07T19:30:37.264Z,47.57
2022-09-07T19:33:09.785Z,50.50
2022-09-07T19:35:37.852Z,49.93
2022-09-07T19:38:05.657Z,50.10
2022-09-07T19:40:36.041Z,51.14
2022-09-07T19:43:05.721Z,51.40
2022-09-07T19:45:33.498Z,50.03
2022-09-07T19:48:01.602Z,50.62
2022-09-07T19:50:29.324Z,50.86
2022-09-07T19:52:57.005Z,51.32
2022-09-07T19:55:24.691Z,50.44
2022-09-07T19:57:52.442Z,51.17
2022-09-07T20:00:22.568Z,50.60
2022-09-07T20:02:56.990Z,47.90
2022-09-07T20:05:29.082Z,47.26
2022-09-07T20:07:56.831Z,45.29
2022-09-07T20:10:24.579Z,44.92
2022-09-07T20:12:52.305Z,44.38
2022-09-07T20:15:21.427Z,44.83
2022-09-07T20:17:49.136Z,44.17
2022-09-07T20:20:17.160Z,44.21
2022-09-07T20:22:44.996Z,43.38
2022-09-07T20:25:13.345Z,42.90
2022-09-07T20:27:41.406Z,44.11
2022-09-07T20:30:10.742Z,44.29
2022-09-07T20:32:40.807Z,44.21
2022-09-07T20:35:09.312Z,46.57
2022-09-07T20:37:37.231Z,46.81
2022-09-07T20:40:06.331Z,45.87
2022-09-07T20:42:34.292Z,45.55
2022-09-07T20:45:02.210Z,45.89
2022-09-07T20:47:30.271Z,44.83
2022-09-07T20:49:59.443Z,44.11
2022-09-07T20:52:27.636Z,44.23
2022-09-07T20:54:55.377Z,45.97
2022-09-07T20:57:23.140Z,46.89
2022-09-07T20:59:50.854Z,45.15
2022-09-07T21:02:18.607Z,45.88
2022-09-07T21:04:46.373Z,45.23
2022-09-07T21:07:15.398Z,46.15
2022-09-07T21:09:43.151Z,46.26
2022-09-07T21:12:10.899Z,52.18
2022-09-07T21:14:38.647Z,51.31
2022-09-07T21:17:06.656Z,48.63
2022-09-07T21:19:34.534Z,46.32
2022-09-07T21:22:02.255Z,46.54
2022-09-07T21:24:31.359Z,46.11
2022-09-07T21:26:59.076Z,47.91
2022-09-07T21:29:26.857Z,46.83
2022-09-07T21:31:55.507Z,44.90
2022-09-07T21:34:23.893Z,49.41
2022-09-07T21:36:52.063Z,51.82
2022-09-07T21:39:20.721Z,50.58
2022-09-07T21:41:49.902Z,48.81
2022-09-07T21:44:17.626Z,48.94
2022-09-07T21:46:45.452Z,47.56
2022-09-07T21:49:13.290Z,47.05
2022-09-07T21:51:41.012Z,45.66
2022-09-07T21:54:09.303Z,45.43
2022-09-07T21:56:37.507Z,49.60
2022-09-07T21:59:06.595Z,51.12
2022-09-07T22:01:34.433Z,51.90
2022-09-07T22:04:04.138Z,52.17
2022-09-07T22:06:33.125Z,48.97
2022-09-07T22:09:01.923Z,46.89
2022-09-07T22:11:30.925Z,46.45
2022-09-07T22:14:00.448Z,44.48
2022-09-07T22:16:29.922Z,44.24
2022-09-07T22:18:57.658Z,43.91
2022-09-07T22:21:27.480Z,43.94
2022-09-07T22:23:57.281Z,43.64
2022-09-07T22:26:27.626Z,47.04
2022-09-07T22:28:55.690Z,52.17
2022-09-07T22:31:25.610Z,53.38
2022-09-07T22:33:56.662Z,53.35
2022-09-07T22:36:25.924Z,53.41
2022-09-07T22:38:55.091Z,52.06
2022-09-07T22:41:25.422Z,51.93
2022-09-07T22:43:53.115Z,51.05
2022-09-07T22:46:23.799Z,50.33
2022-09-07T22:48:52.475Z,49.50
2022-09-07T22:51:21.889Z,50.63
2022-09-07T22:53:49.578Z,54.01
2022-09-07T22:56:20.434Z,54.77
2022-09-07T22:58:49.604Z,56.41
2022-09-07T23:01:17.879Z,54.67
2022-09-07T23:03:46.217Z,55.29
2022-09-07T23:06:23.987Z,55.91
2022-09-07T23:08:52.328Z,56.01
2022-09-07T23:11:20.684Z,55.12
2022-09-07T23:13:51.838Z,54.12
2022-09-07T23:16:19.975Z,56.38
2022-09-07T23:18:48.258Z,55.67
2022-09-07T23:21:16.673Z,54.57
2022-09-07T23:23:49.936Z,54.27
2022-09-07T23:26:17.752Z,53.78
2022-09-07T23:28:45.523Z,57.49
2022-09-07T23:31:13.453Z,59.18
2022-09-07T23:33:41.306Z,60.45
2022-09-07T23:36:09.183Z,60.14
2022-09-07T23:38:36.952Z,62.28
2022-09-07T23:41:06.393Z,61.86
2022-09-07T23:43:34.247Z,62.22
2022-09-07T23:46:02.185Z,61.85
2022-09-07T23:48:30.048Z,61.73
2022-09-07T23:50:57.796Z,63.39
2022-09-07T23:53:25.935Z,62.79
2022-09-07T23:55:54.205Z,62.16
2022-09-07T23:58:24.065Z,58.54
